createdAt,value
2017-12-14T13:35:35.585Z,14.83
2017-12-14T13:38:06.102Z,13.57
2017-12-14T13:40:38.595Z,21.40
2017-12-14T13:43:09.098Z,20.50
2017-12-14T13:45:40.404Z,15.20
2017-12-14T13:48:10.935Z,24.40
2017-12-14T13:50:41.462Z,22.97
2017-12-14T13:53:11.968Z,15.53
2017-12-14T13:55:42.558Z,27.83
2017-12-14T13:58:13.851Z,15.10
2017-12-14T14:00:44.398Z,19.20
2017-12-14T14:03:14.966Z,17.60
2017-12-14T14:05:46.290Z,17.47
2017-12-14T14:08:16.804Z,18.70
2017-12-14T14:10:47.323Z,19.23
2017-12-14T14:13:18.103Z,17.20
2017-12-14T14:15:49.454Z,15.70
2017-12-14T14:18:20.142Z,17.57
2017-12-14T14:20:50.779Z,21.60
2017-12-14T14:23:21.252Z,17.40
2017-12-14T14:25:52.129Z,18.23
2017-12-14T14:28:22.640Z,23.87
2017-12-14T14:30:53.198Z,19.33
2017-12-14T14:33:23.666Z,17.87
2017-12-14T14:35:54.947Z,17.27
2017-12-14T14:38:25.464Z,17.70
2017-12-14T14:40:56.030Z,16.70
2017-12-14T14:43:26.566Z,13.40
2017-12-14T14:45:57.094Z,17.37
2017-12-14T14:48:27.852Z,18.40
2017-12-14T14:50:59.115Z,25.70
2017-12-14T14:53:29.601Z,20.43
2017-12-14T14:56:00.122Z,23.87
2017-12-14T14:58:30.636Z,24.77
2017-12-14T15:01:01.112Z,18.93
2017-12-14T15:03:32.364Z,12.87
2017-12-14T15:06:03.661Z,13.87
2017-12-14T15:08:34.182Z,25.03
2017-12-14T15:11:04.680Z,13.60
2017-12-14T15:13:35.160Z,15.63
2017-12-14T15:16:05.675Z,17.70
2017-12-14T15:18:36.206Z,15.40
2017-12-14T15:21:06.742Z,22.17
2017-12-14T15:23:37.222Z,14.57
2017-12-14T15:26:07.812Z,18.97
2017-12-14T15:28:38.308Z,20.33
2017-12-14T15:31:08.848Z,20.70
2017-12-14T15:33:39.392Z,23.37
2017-12-14T15:36:09.894Z,12.93
2017-12-14T15:38:40.383Z,19.60
2017-12-14T15:41:11.695Z,16.73
2017-12-14T15:43:42.256Z,24.63
2017-12-14T15:46:13.535Z,16.77
2017-12-14T15:48:44.030Z,24.43
2017-12-14T15:51:15.266Z,21.10
2017-12-14T15:53:45.732Z,23.57
2017-12-14T15:56:16.288Z,19.93
2017-12-14T15:58:46.798Z,25.57
2017-12-14T16:01:17.289Z,24.90
2017-12-14T16:03:48.582Z,18.73
2017-12-14T16:06:19.074Z,16.57
2017-12-14T16:08:50.383Z,20.07
2017-12-14T16:11:20.912Z,20.50
2017-12-14T16:13:51.362Z,18.80
2017-12-14T16:16:21.855Z,19.50
2017-12-14T16:18:52.330Z,18.40
2017-12-14T16:21:23.629Z,22.17
2017-12-14T16:23:54.206Z,19.10
2017-12-14T16:26:25.467Z,17.40
2017-12-14T16:28:55.956Z,20.40
2017-12-14T16:31:26.452Z,23.80
2017-12-14T16:33:56.936Z,22.33
2017-12-14T16:36:28.222Z,26.43
2017-12-14T16:38:58.699Z,27.13
2017-12-14T16:41:29.246Z,19.17
2017-12-14T16:43:59.746Z,28.10
2017-12-14T16:46:30.260Z,16.43
2017-12-14T16:49:00.766Z,19.27
2017-12-14T16:51:31.290Z,22.93
2017-12-14T16:54:01.818Z,19.70
2017-12-14T16:56:32.317Z,23.57
2017-12-14T16:59:03.562Z,17.90
2017-12-14T17:01:34.839Z,21.77
2017-12-14T17:04:05.388Z,19.33
2017-12-14T17:06:35.922Z,16.23
2017-12-14T17:09:06.843Z,17.87
2017-12-14T17:11:37.372Z,18.40
2017-12-14T17:14:07.862Z,17.93
2017-12-14T17:16:39.108Z,23.83
2017-12-14T17:19:09.865Z,17.03
2017-12-14T17:21:40.677Z,16.90
2017-12-14T17:24:11.951Z,23.87
2017-12-14T17:26:42.510Z,17.33
2017-12-14T17:29:13.015Z,22.97
2017-12-14T17:31:44.394Z,23.33
2017-12-14T17:34:14.906Z,21.37
2017-12-14T17:36:45.398Z,17.60
2017-12-14T17:39:15.865Z,26.03
2017-12-14T17:41:46.345Z,27.70
2017-12-14T17:44:17.536Z,21.80
2017-12-14T17:46:48.622Z,17.83
2017-12-14T17:49:19.846Z,20.20
2017-12-14T17:51:50.295Z,19.60
2017-12-14T17:54:21.491Z,17.97
2017-12-14T17:56:51.933Z,19.53
2017-12-14T17:59:22.393Z,18.47
2017-12-14T18:01:53.623Z,21.03
2017-12-14T18:04:24.062Z,35.10
2017-12-14T18:06:55.313Z,17.80
2017-12-14T18:09:26.533Z,18.90
2017-12-14T18:11:56.989Z,24.70
2017-12-14T18:14:28.198Z,30.20
2017-12-14T18:16:58.681Z,27.17
2017-12-14T18:19:29.095Z,31.10
2017-12-14T18:22:00.295Z,27.37
2017-12-14T18:24:30.759Z,21.50
2017-12-14T18:27:02.018Z,35.30
2017-12-14T18:29:32.497Z,21.00
2017-12-14T18:32:03.016Z,24.90
2017-12-14T18:34:33.487Z,24.10
2017-12-14T18:37:05.752Z,21.30
2017-12-14T18:39:36.945Z,22.93
2017-12-14T18:42:07.422Z,27.30
2017-12-14T18:44:38.649Z,25.27
2017-12-14T18:47:09.099Z,23.93
2017-12-14T18:49:40.306Z,30.73
2017-12-14T18:52:10.772Z,23.90
2017-12-14T18:54:41.966Z,26.50
2017-12-14T18:57:12.379Z,25.13
2017-12-14T18:59:42.845Z,27.90
2017-12-14T19:02:13.305Z,23.23
2017-12-14T19:04:44.610Z,24.23
2017-12-14T19:07:15.054Z,19.87
2017-12-14T19:09:45.533Z,24.60
2017-12-14T19:12:15.993Z,25.03
2017-12-14T19:14:46.457Z,25.00
2017-12-14T19:17:17.665Z,21.80
2017-12-14T19:19:48.145Z,23.30
2017-12-14T19:22:18.632Z,28.63
2017-12-14T19:24:49.083Z,26.40
2017-12-14T19:27:20.263Z,28.17
2017-12-14T19:29:50.687Z,29.57
2017-12-14T19:32:21.197Z,29.43
2017-12-14T19:34:51.643Z,28.77
2017-12-14T19:37:22.112Z,24.27
2017-12-14T19:39:52.564Z,25.53
2017-12-14T19:42:23.037Z,37.80
2017-12-14T19:44:53.495Z,26.50
2017-12-14T19:47:23.986Z,28.50
2017-12-14T19:49:54.402Z,25.63
2017-12-14T19:52:24.869Z,25.37
2017-12-14T19:54:55.291Z,28.97
2017-12-14T19:57:25.791Z,28.87
2017-12-14T19:59:56.214Z,29.30
2017-12-14T20:02:26.642Z,28.23
2017-12-14T20:04:57.085Z,25.07
2017-12-14T20:07:27.544Z,25.73
2017-12-14T20:09:58.002Z,29.63
2017-12-14T20:12:29.258Z,23.50
2017-12-14T20:14:59.702Z,30.57
2017-12-14T20:17:30.166Z,27.33
2017-12-14T20:20:00.613Z,31.87
2017-12-14T20:22:31.942Z,31.77
2017-12-14T20:25:02.403Z,32.63
2017-12-14T20:27:33.637Z,28.33
2017-12-14T20:30:04.097Z,32.10
2017-12-14T20:32:34.549Z,23.50
2017-12-14T20:35:04.997Z,37.53
2017-12-14T20:37:35.417Z,32.10
2017-12-14T20:40:05.882Z,30.17
2017-12-14T20:42:37.086Z,30.53
2017-12-14T20:45:07.546Z,33.93
2017-12-14T20:47:38.788Z,35.03
2017-12-14T20:50:10.018Z,30.53
2017-12-14T20:52:40.494Z,29.23
2017-12-14T20:55:10.948Z,34.53
2017-12-14T20:57:41.391Z,28.63
2017-12-14T21:00:11.859Z,35.23
2017-12-14T21:02:42.333Z,37.73
2017-12-14T21:05:12.788Z,29.73
2017-12-14T21:07:43.255Z,42.17
2017-12-14T21:10:14.344Z,33.93
2017-12-14T21:12:44.825Z,38.30
2017-12-14T21:15:15.247Z,31.50
2017-12-14T21:17:45.703Z,34.57
2017-12-14T21:20:16.164Z,30.73
2017-12-14T21:22:46.625Z,43.60
2017-12-14T21:25:17.075Z,35.27
2017-12-14T21:27:47.490Z,32.77
2017-12-14T21:30:18.130Z,37.03
2017-12-14T21:32:48.605Z,38.10
2017-12-14T21:35:19.049Z,42.60
2017-12-14T21:37:50.292Z,36.37
2017-12-14T21:40:21.537Z,40.87
2017-12-14T21:42:52.759Z,46.00
2017-12-14T21:45:23.209Z,51.30
2017-12-14T21:47:54.459Z,40.63
2017-12-14T21:50:25.657Z,44.23
2017-12-14T21:52:56.131Z,41.73
2017-12-14T21:55:27.326Z,47.83
2017-12-14T21:57:57.766Z,46.90
2017-12-14T22:00:28.209Z,49.80
2017-12-14T22:02:58.666Z,43.50
2017-12-14T22:05:29.862Z,48.83
2017-12-14T22:08:00.330Z,50.87
2017-12-14T22:10:31.582Z,46.40
2017-12-14T22:13:02.006Z,45.33
2017-12-14T22:15:33.226Z,47.73
2017-12-14T22:18:03.701Z,48.27
2017-12-14T22:20:34.189Z,47.30
2017-12-14T22:23:04.654Z,53.63
2017-12-14T22:25:35.126Z,44.40
2017-12-14T22:28:05.583Z,52.47
2017-12-14T22:30:36.827Z,48.17
2017-12-14T22:33:07.998Z,50.13
2017-12-14T22:35:38.453Z,54.60
2017-12-14T22:38:08.931Z,54.63
2017-12-14T22:40:40.139Z,55.60
2017-12-14T22:43:10.594Z,53.50
2017-12-14T22:45:41.074Z,62.43
2017-12-14T22:48:11.531Z,66.00
2017-12-14T22:50:41.990Z,63.77
2017-12-14T22:53:13.234Z,56.20
2017-12-14T22:55:44.439Z,80.53
2017-12-14T22:58:14.882Z,57.87
2017-12-14T23:00:45.541Z,72.40
2017-12-14T23:03:15.966Z,63.20
2017-12-14T23:05:47.179Z,51.77
2017-12-14T23:08:17.632Z,60.13
2017-12-14T23:10:48.857Z,66.37
2017-12-14T23:13:19.317Z,50.50
2017-12-14T23:15:49.770Z,57.57
2017-12-14T23:18:20.264Z,55.03
2017-12-14T23:20:51.454Z,59.27
2017-12-14T23:23:21.941Z,62.90
2017-12-14T23:25:53.130Z,56.00
2017-12-14T23:28:23.609Z,65.00
2017-12-14T23:30:54.815Z,78.17
2017-12-14T23:33:25.276Z,57.73
2017-12-14T23:35:56.496Z,67.47
2017-12-14T23:38:26.975Z,55.07
2017-12-14T23:40:57.438Z,62.00
2017-12-14T23:43:27.871Z,59.00
2017-12-14T23:45:58.315Z,55.27
2017-12-14T23:48:28.795Z,59.37
2017-12-14T23:50:59.239Z,71.93
2017-12-14T23:53:29.691Z,61.57
2017-12-14T23:56:00.091Z,54.23
2017-12-14T23:58:30.549Z,64.77
